Fjordprinsessen — LJVE — position and weather

sailwx.info

Track history (hours):
 
Tides and Currents Weather Stations Pressure Air Temp Water Temp Dewpoint Dewpoint Depression Visibility Wind Speed Wind Dir Waves Ship Positions

Fjordprinsessen

Last reported at 2016-Aug-24 13:33 UTC. Time now 2016-Aug-24 13:46 UTC.
Position N 67°17' E 014°24'.

Length 30 m; draft 2.5 m.

Type: High speed craft. MMSI: 259604000.

Date/timePositionNaut miles runAvg speedWind from/ knotsBaromVisibWave heightAir tempDewpointWater temp
2016-Aug-24 13:33N 67°17' E 014°24'1 0.6
2016-Aug-24 12:31N 67°17' E 014°22'0 0.0
2016-Aug-24 11:31N 67°17' E 014°22'0 0.0
2016-Aug-24 10:30N 67°17' E 014°22'0 0.0
2016-Aug-24 09:33N 67°17' E 014°22'0 0.0
2016-Aug-24 08:30N 67°17' E 014°22'0 0.0
2016-Aug-24 07:33N 67°17' E 014°22'0 0.0
2016-Aug-24 06:33N 67°17' E 014°22'12 6.2
2016-Aug-24 04:33N 67°08' E 014°02'1212.4
2016-Aug-24 03:33N 67°17' E 014°22'0 0.0
2016-Aug-24 02:29N 67°17' E 014°22'0 0.0
2016-Aug-24 01:29N 67°17' E 014°22'0 0.0
2016-Aug-24 00:32N 67°17' E 014°22'0 0.0
2016-Aug-23 23:32N 67°17' E 014°22'0 0.0
2016-Aug-23 22:32N 67°17' E 014°22'0 0.0
2016-Aug-23 21:31N 67°17' E 014°22'0 0.0
2016-Aug-23 20:31N 67°17' E 014°22'0 0.0
2016-Aug-23 19:28N 67°17' E 014°22'0 0.0
2016-Aug-23 18:31N 67°17' E 014°22'0 0.0
2016-Aug-23 17:31N 67°17' E 014°22'1 0.5
2016-Aug-23 16:33N 67°17' E 014°23'1312.5
2016-Aug-23 15:30N 67°19' E 013°49'8 9.1
2016-Aug-23 14:34N 67°25' E 014°06'10 9.6
2016-Aug-23 13:31N 67°17' E 014°22'0 0.0
2016-Aug-23 12:33N 67°17' E 014°22'0 0.0
2016-Aug-23 11:33N 67°17' E 014°22'0 0.0
2016-Aug-23 10:33N 67°17' E 014°22'0 0.0
2016-Aug-23 09:33N 67°17' E 014°22'0 0.0
2016-Aug-23 08:30N 67°17' E 014°22'0 0.0
2016-Aug-23 07:34N 67°17' E 014°22'1512.2
2016-Aug-23 06:20N 67°18' E 013°43'1214.9
2016-Aug-23 05:31N 67°23' E 014°13'1616.5
2016-Aug-23 04:33N 67°07' E 014°03'1212.2
2016-Aug-23 03:33N 67°17' E 014°22'0 0.0
2016-Aug-23 02:30N 67°17' E 014°22'0 0.0
2016-Aug-23 01:33N 67°17' E 014°22'0 0.0
2016-Aug-23 00:32N 67°17' E 014°22'0 0.0
2016-Aug-22 23:29N 67°17' E 014°22'0 0.0
2016-Aug-22 22:32N 67°17' E 014°22'0 0.0
2016-Aug-22 21:32N 67°17' E 014°22'0 0.0
2016-Aug-22 20:32N 67°17' E 014°22'0 0.0
2016-Aug-22 19:32N 67°17' E 014°22'0 0.0
2016-Aug-22 18:32N 67°17' E 014°22'0 0.0
2016-Aug-22 17:32N 67°17' E 014°22'0 0.0
2016-Aug-22 16:32N 67°17' E 014°22'1515.1
2016-Aug-22 15:33N 67°11' E 013°48'6 6.0
2016-Aug-22 14:34N 67°08' E 014°02'1212.3
2016-Aug-22 13:33N 67°17' E 014°22'0 0.0
2016-Aug-22 12:33N 67°17' E 014°22'0 0.0
2016-Aug-22 11:33N 67°17' E 014°22'0 0.4
2016-Aug-22 10:33N 67°17' E 014°23'1212.0
2016-Aug-22 09:33N 67°14' E 013°53'7 6.7
2016-Aug-22 08:34N 67°08' E 014°02'1211.5
2016-Aug-22 07:32N 67°17' E 014°22'0 0.0
2016-Aug-22 06:32N 67°17' E 014°22'0 0.0
2016-Aug-22 05:32N 67°17' E 014°22'1313.1
2016-Aug-22 04:33N 67°07' E 014°02'10 9.5
2016-Aug-22 03:34N 67°16' E 014°13'4 3.7
2016-Aug-22 02:31N 67°17' E 014°22'0 0.0
2016-Aug-22 01:31N 67°17' E 014°22'0 0.0
2016-Aug-22 00:34N 67°17' E 014°22'0 0.0
2016-Aug-21 23:33N 67°17' E 014°22'0 0.0
2016-Aug-21 22:33N 67°17' E 014°22'0 0.0
2016-Aug-21 21:33N 67°17' E 014°22'0 0.0
2016-Aug-21 20:33N 67°17' E 014°22'6 5.9
2016-Aug-21 19:34N 67°13' E 014°11'1010.4
2016-Aug-21 18:34N 67°10' E 013°46'1615.9
2016-Aug-21 17:33N 67°17' E 014°22'9 9.0
2016-Aug-21 16:33N 67°24' E 014°09'9 9.5
2016-Aug-21 15:34N 67°18' E 013°50'1211.9
2016-Aug-21 14:31N 67°17' E 014°22'0 0.0
2016-Aug-21 13:31N 67°17' E 014°22'0 0.0
2016-Aug-21 12:28N 67°17' E 014°22'0 0.0
2016-Aug-21 11:31N 67°17' E 014°22'0 0.0
2016-Aug-21 10:31N 67°17' E 014°22'0 0.0
2016-Aug-21 09:31N 67°17' E 014°22'0 0.0
2016-Aug-21 08:31N 67°17' E 014°22'0 0.0
2016-Aug-21 07:31N 67°17' E 014°22'0 0.0
2016-Aug-21 06:31N 67°17' E 014°22'0 0.0
2016-Aug-21 05:31N 67°17' E 014°22'0 0.0
2016-Aug-21 04:31N 67°17' E 014°22'0 0.0
2016-Aug-21 03:31N 67°17' E 014°22'0 0.0
2016-Aug-21 02:34N 67°17' E 014°22'0 0.0
2016-Aug-21 01:30N 67°17' E 014°22'0 0.0
2016-Aug-21 00:33N 67°17' E 014°22'0 0.0
2016-Aug-20 23:33N 67°17' E 014°22'0 0.0
2016-Aug-20 22:33N 67°17' E 014°22'0 0.0
2016-Aug-20 21:33N 67°17' E 014°22'0 0.0
2016-Aug-20 20:33N 67°17' E 014°22'0 0.0
2016-Aug-20 19:33N 67°17' E 014°22'0 0.0
2016-Aug-20 18:30N 67°17' E 014°22'0 0.0
2016-Aug-20 17:33N 67°17' E 014°22'0 0.0
2016-Aug-20 16:33N 67°17' E 014°22'1211.9
2016-Aug-20 15:33N 67°25' E 014°00'1111.5
2016-Aug-20 14:33N 67°17' E 014°22'1414.2
2016-Aug-20 13:33N 67°11' E 013°49'10 9.9
2016-Aug-20 12:34N 67°14' E 014°13'5 4.7
2016-Aug-20 11:34N 67°17' E 014°22'0 0.0
2016-Aug-20 10:33N 67°17' E 014°22'0 0.4
2016-Aug-20 09:33N 67°17' E 014°23'1313.0
2016-Aug-20 08:33N 67°24' E 013°54'1010.2
2016-Aug-20 07:34N 67°17' E 014°11'1010.0
2016-Aug-20 06:33N 67°08' E 013°58'1313.0
2016-Aug-20 05:33N 67°17' E 014°22'0 0.0
2016-Aug-20 04:32N 67°17' E 014°22'0 0.0
2016-Aug-20 03:32N 67°17' E 014°22'0 0.0
2016-Aug-20 02:32N 67°17' E 014°22'0 0.0
2016-Aug-20 01:32N 67°17' E 014°22'0 0.0
2016-Aug-20 00:31N 67°17' E 014°22'0 0.0
2016-Aug-19 23:31N 67°17' E 014°22'0 0.0
2016-Aug-19 22:31N 67°17' E 014°22'0 0.0
2016-Aug-19 21:31N 67°17' E 014°22'0 0.0
2016-Aug-19 20:31N 67°17' E 014°22'0 0.0
2016-Aug-19 19:31N 67°17' E 014°22'0 0.0
2016-Aug-19 18:33N 67°17' E 014°22'0 0.0
2016-Aug-19 17:33N 67°17' E 014°22'1 0.6
2016-Aug-19 16:33N 67°17' E 014°24'1615.6
2016-Aug-19 15:34N 67°18' E 013°43'1110.6
2016-Aug-19 14:33N 67°25' E 014°05'1010.2
2016-Aug-19 13:33N 67°17' E 014°22'4 3.5
2016-Aug-19 12:34N 67°20' E 014°18'6 6.1
2016-Aug-19 11:33N 67°25' E 014°07'10 9.6
2016-Aug-19 10:33N 67°17' E 014°22'0 0.0
2016-Aug-19 09:33N 67°17' E 014°22'0 0.0
2016-Aug-19 08:33N 67°17' E 014°22'0 0.0
2016-Aug-19 07:33N 67°17' E 014°22'0 0.0
2016-Aug-19 06:33N 67°17' E 014°22'0 0.0
2016-Aug-19 05:33N 67°17' E 014°22'1212.4
2016-Aug-19 04:33N 67°07' E 014°02'1212.4
2016-Aug-19 03:34N 67°17' E 014°22'0 0.0
2016-Aug-19 02:31N 67°17' E 014°22'0 0.0
2016-Aug-19 01:31N 67°17' E 014°22'0 0.0
2016-Aug-19 00:31N 67°17' E 014°22'0 0.0
2016-Aug-18 23:31N 67°17' E 014°22'0 0.0
2016-Aug-18 22:31N 67°17' E 014°22'0 0.0
2016-Aug-18 21:31N 67°17' E 014°22'0 0.0
2016-Aug-18 20:31N 67°17' E 014°22'1313.2
2016-Aug-18 19:34N 67°13' E 013°52'6 6.3
2016-Aug-18 18:33N 67°08' E 014°02'1212.1
2016-Aug-18 17:33N 67°17' E 014°22'1 0.6
2016-Aug-18 16:33N 67°17' E 014°24'1211.5
2016-Aug-18 15:33N 67°20' E 013°55'6 6.4
2016-Aug-18 14:34N 67°25' E 014°04'1110.6
2016-Aug-18 13:33N 67°17' E 014°22'9 8.8
2016-Aug-18 12:33N 67°24' E 014°10'2 1.8
2016-Aug-18 11:34N 67°24' E 014°14'7 7.3
2016-Aug-18 10:33N 67°17' E 014°24'1312.8
2016-Aug-18 09:33N 67°13' E 013°53'6 6.2
2016-Aug-18 08:33N 67°08' E 014°02'1211.8
2016-Aug-18 07:34N 67°17' E 014°22'0 0.0
2016-Aug-18 06:33N 67°17' E 014°22'0 0.0
2016-Aug-18 05:34N 67°17' E 014°22'1212.4
2016-Aug-18 04:33N 67°07' E 014°02'1212.4
2016-Aug-18 03:34N 67°17' E 014°22'0 0.0
2016-Aug-18 02:32N 67°17' E 014°22'0 0.0
2016-Aug-18 01:32N 67°17' E 014°22'0 0.0
2016-Aug-18 00:29N 67°17' E 014°22'0 0.0
2016-Aug-17 23:32N 67°17' E 014°22'0 0.0
2016-Aug-17 22:32N 67°17' E 014°22'0 0.0
2016-Aug-17 21:32N 67°17' E 014°22'0 0.0
2016-Aug-17 20:32N 67°17' E 014°22'8 8.1
2016-Aug-17 19:34N 67°13' E 014°05'6 5.7
2016-Aug-17 18:34N 67°07' E 014°03'1212.3
2016-Aug-17 17:33N 67°17' E 014°22'0 0.1
2016-Aug-17 16:33N 67°17' E 014°22'1615.5
2016-Aug-17 15:33N 67°10' E 013°46'7 6.8
2016-Aug-17 14:33N 67°07' E 014°02'1313.0
2016-Aug-17 13:34N 67°17' E 014°24'1 0.7
2016-Aug-17 12:33N 67°17' E 014°22'0 0.0
2016-Aug-17 11:33N 67°17' E 014°22'0 0.0
2016-Aug-17 10:34N 67°17' E 014°22'0 0.0
2016-Aug-17 09:33N 67°17' E 014°22'0 0.0
2016-Aug-17 08:33N 67°17' E 014°22'0 0.0
2016-Aug-17 07:33N 67°17' E 014°22'0 0.0
2016-Aug-17 06:34N 67°17' E 014°22'0 0.0
2016-Aug-17 05:34N 67°17' E 014°22'1212.3
2016-Aug-17 04:34N 67°07' E 014°03'1212.3
2016-Aug-17 03:33N 67°17' E 014°22'0 0.0
2016-Aug-17 02:32N 67°17' E 014°22'0 0.0
2016-Aug-17 01:32N 67°17' E 014°22'0 0.0
2016-Aug-17 00:32N 67°17' E 014°22'0 0.0
2016-Aug-16 23:29N 67°17' E 014°22'0 0.0
2016-Aug-16 22:29N 67°17' E 014°22'0 0.0
2016-Aug-16 21:32N 67°17' E 014°22'0 0.0
2016-Aug-16 20:32N 67°17' E 014°22'0 0.0
2016-Aug-16 19:32N 67°17' E 014°22'0 0.0
2016-Aug-16 18:32N 67°17' E 014°22'0 0.0
2016-Aug-16 17:32N 67°17' E 014°22'0 0.3
2016-Aug-16 16:34N 67°17' E 014°22'1413.9
2016-Aug-16 15:33N 67°19' E 013°46'1110.6
2016-Aug-16 14:34N 67°24' E 014°11'9 8.5
2016-Aug-16 13:33N 67°17' E 014°22'0 0.0
2016-Aug-16 12:33N 67°17' E 014°22'0 0.0
2016-Aug-16 11:33N 67°17' E 014°22'0 0.0
2016-Aug-16 10:33N 67°17' E 014°22'0 0.0
2016-Aug-16 09:33N 67°17' E 014°22'0 0.0
2016-Aug-16 08:33N 67°17' E 014°22'0 0.0
2016-Aug-16 07:33N 67°17' E 014°22'12 4.1
2016-Aug-16 04:33N 67°07' E 014°02'1212.3
2016-Aug-16 03:33N 67°17' E 014°22'0 0.0
2016-Aug-16 02:32N 67°17' E 014°22'0 0.0
2016-Aug-16 01:31N 67°17' E 014°22'0 0.0
2016-Aug-16 00:31N 67°17' E 014°22'0 0.0
2016-Aug-15 23:31N 67°17' E 014°22'0 0.0
2016-Aug-15 22:31N 67°17' E 014°22'0 0.0
2016-Aug-15 21:31N 67°17' E 014°22'0 0.0
2016-Aug-15 20:31N 67°17' E 014°22'0 0.0
2016-Aug-15 19:31N 67°17' E 014°22'0 0.0
2016-Aug-15 18:31N 67°17' E 014°22'0 0.0
2016-Aug-15 17:31N 67°17' E 014°22'0 0.3
2016-Aug-15 16:33N 67°17' E 014°23'1514.9
2016-Aug-15 15:34N 67°11' E 013°48'6 6.4
2016-Aug-15 14:34N 67°07' E 014°03'1212.3
2016-Aug-15 13:33N 67°17' E 014°22'0 0.0
2016-Aug-15 12:32N 67°17' E 014°22'0 0.0
2016-Aug-15 11:32N 67°17' E 014°22'0 0.0
2016-Aug-15 10:32N 67°17' E 014°22'1313.7
2016-Aug-15 09:34N 67°11' E 013°52'5 4.7
2016-Aug-15 08:34N 67°09' E 014°02'1211.5
2016-Aug-15 07:33N 67°17' E 014°22'0 0.0
2016-Aug-15 06:33N 67°17' E 014°22'12 6.2
2016-Aug-15 04:34N 67°07' E 014°02'1212.1
2016-Aug-15 03:33N 67°17' E 014°22'0 0.3
2016-Aug-15 02:32N 67°17' E 014°22'0 0.0
2016-Aug-15 01:32N 67°17' E 014°22'0 0.0
2016-Aug-15 00:32N 67°17' E 014°22'0 0.0
2016-Aug-14 23:32N 67°17' E 014°22'0 0.0
2016-Aug-14 22:32N 67°17' E 014°22'0 0.0
2016-Aug-14 21:31N 67°17' E 014°23'0 0.0
2016-Aug-14 20:31N 67°17' E 014°22'3 3.0
2016-Aug-14 19:34N 67°15' E 014°16'1313.0
2016-Aug-14 18:33N 67°10' E 013°46'1615.9
2016-Aug-14 17:33N 67°17' E 014°22'10 9.7
2016-Aug-14 16:33N 67°25' E 014°07'9 9.4
2016-Aug-14 15:33N 67°18' E 013°49'1312.9
2016-Aug-14 14:34N 67°17' E 014°22'0 0.0
2016-Aug-14 13:31N 67°17' E 014°22'0 0.0
2016-Aug-14 12:31N 67°17' E 014°22'  
Track history (hours):
 
Tides and Currents Weather Stations Pressure Air Temp Water Temp Dewpoint Dewpoint Depression Visibility Wind Speed Wind Dir Waves Ship Positions

Fjordprinsessen

Last reported at 2016-Aug-24 13:33 UTC. Time now 2016-Aug-24 13:46 UTC.
Position N 67°17' E 014°24'.

Length 30 m; draft 2.5 m.

Type: High speed craft. MMSI: 259604000.

Date/timePositionNaut miles runAvg speedWind from/ knotsBaromVisibWave heightAir tempDewpointWater temp
2016-Aug-24 13:33N 67°17' E 014°24'1 0.6
2016-Aug-24 12:31N 67°17' E 014°22'0 0.0
2016-Aug-24 11:31N 67°17' E 014°22'0 0.0
2016-Aug-24 10:30N 67°17' E 014°22'0 0.0
2016-Aug-24 09:33N 67°17' E 014°22'0 0.0
2016-Aug-24 08:30N 67°17' E 014°22'0 0.0
2016-Aug-24 07:33N 67°17' E 014°22'0 0.0
2016-Aug-24 06:33N 67°17' E 014°22'12 6.2
2016-Aug-24 04:33N 67°08' E 014°02'1212.4
2016-Aug-24 03:33N 67°17' E 014°22'0 0.0
2016-Aug-24 02:29N 67°17' E 014°22'0 0.0
2016-Aug-24 01:29N 67°17' E 014°22'0 0.0
2016-Aug-24 00:32N 67°17' E 014°22'0 0.0
2016-Aug-23 23:32N 67°17' E 014°22'0 0.0
2016-Aug-23 22:32N 67°17' E 014°22'0 0.0
2016-Aug-23 21:31N 67°17' E 014°22'0 0.0
2016-Aug-23 20:31N 67°17' E 014°22'0 0.0
2016-Aug-23 19:28N 67°17' E 014°22'0 0.0
2016-Aug-23 18:31N 67°17' E 014°22'0 0.0
2016-Aug-23 17:31N 67°17' E 014°22'1 0.5
2016-Aug-23 16:33N 67°17' E 014°23'1312.5
2016-Aug-23 15:30N 67°19' E 013°49'8 9.1
2016-Aug-23 14:34N 67°25' E 014°06'10 9.6
2016-Aug-23 13:31N 67°17' E 014°22'0 0.0
2016-Aug-23 12:33N 67°17' E 014°22'0 0.0
2016-Aug-23 11:33N 67°17' E 014°22'0 0.0
2016-Aug-23 10:33N 67°17' E 014°22'0 0.0
2016-Aug-23 09:33N 67°17' E 014°22'0 0.0
2016-Aug-23 08:30N 67°17' E 014°22'0 0.0
2016-Aug-23 07:34N 67°17' E 014°22'1512.2
2016-Aug-23 06:20N 67°18' E 013°43'1214.9
2016-Aug-23 05:31N 67°23' E 014°13'1616.5
2016-Aug-23 04:33N 67°07' E 014°03'1212.2
2016-Aug-23 03:33N 67°17' E 014°22'0 0.0
2016-Aug-23 02:30N 67°17' E 014°22'0 0.0
2016-Aug-23 01:33N 67°17' E 014°22'0 0.0
2016-Aug-23 00:32N 67°17' E 014°22'0 0.0
2016-Aug-22 23:29N 67°17' E 014°22'0 0.0
2016-Aug-22 22:32N 67°17' E 014°22'0 0.0
2016-Aug-22 21:32N 67°17' E 014°22'0 0.0
2016-Aug-22 20:32N 67°17' E 014°22'0 0.0
2016-Aug-22 19:32N 67°17' E 014°22'0 0.0
2016-Aug-22 18:32N 67°17' E 014°22'0 0.0
2016-Aug-22 17:32N 67°17' E 014°22'0 0.0
2016-Aug-22 16:32N 67°17' E 014°22'1515.1
2016-Aug-22 15:33N 67°11' E 013°48'6 6.0
2016-Aug-22 14:34N 67°08' E 014°02'1212.3
2016-Aug-22 13:33N 67°17' E 014°22'0 0.0
2016-Aug-22 12:33N 67°17' E 014°22'0 0.0
2016-Aug-22 11:33N 67°17' E 014°22'0 0.4
2016-Aug-22 10:33N 67°17' E 014°23'1212.0
2016-Aug-22 09:33N 67°14' E 013°53'7 6.7
2016-Aug-22 08:34N 67°08' E 014°02'1211.5
2016-Aug-22 07:32N 67°17' E 014°22'0 0.0
2016-Aug-22 06:32N 67°17' E 014°22'0 0.0
2016-Aug-22 05:32N 67°17' E 014°22'1313.1
2016-Aug-22 04:33N 67°07' E 014°02'10 9.5
2016-Aug-22 03:34N 67°16' E 014°13'4 3.7
2016-Aug-22 02:31N 67°17' E 014°22'0 0.0
2016-Aug-22 01:31N 67°17' E 014°22'0 0.0
2016-Aug-22 00:34N 67°17' E 014°22'0 0.0
2016-Aug-21 23:33N 67°17' E 014°22'0 0.0
2016-Aug-21 22:33N 67°17' E 014°22'0 0.0
2016-Aug-21 21:33N 67°17' E 014°22'0 0.0
2016-Aug-21 20:33N 67°17' E 014°22'6 5.9
2016-Aug-21 19:34N 67°13' E 014°11'1010.4
2016-Aug-21 18:34N 67°10' E 013°46'1615.9
2016-Aug-21 17:33N 67°17' E 014°22'9 9.0
2016-Aug-21 16:33N 67°24' E 014°09'9 9.5
2016-Aug-21 15:34N 67°18' E 013°50'1211.9
2016-Aug-21 14:31N 67°17' E 014°22'0 0.0
2016-Aug-21 13:31N 67°17' E 014°22'0 0.0
2016-Aug-21 12:28N 67°17' E 014°22'0 0.0
2016-Aug-21 11:31N 67°17' E 014°22'0 0.0
2016-Aug-21 10:31N 67°17' E 014°22'0 0.0
2016-Aug-21 09:31N 67°17' E 014°22'0 0.0
2016-Aug-21 08:31N 67°17' E 014°22'0 0.0
2016-Aug-21 07:31N 67°17' E 014°22'0 0.0
2016-Aug-21 06:31N 67°17' E 014°22'0 0.0
2016-Aug-21 05:31N 67°17' E 014°22'0 0.0
2016-Aug-21 04:31N 67°17' E 014°22'0 0.0
2016-Aug-21 03:31N 67°17' E 014°22'0 0.0
2016-Aug-21 02:34N 67°17' E 014°22'0 0.0
2016-Aug-21 01:30N 67°17' E 014°22'0 0.0
2016-Aug-21 00:33N 67°17' E 014°22'0 0.0
2016-Aug-20 23:33N 67°17' E 014°22'0 0.0
2016-Aug-20 22:33N 67°17' E 014°22'0 0.0
2016-Aug-20 21:33N 67°17' E 014°22'0 0.0
2016-Aug-20 20:33N 67°17' E 014°22'0 0.0
2016-Aug-20 19:33N 67°17' E 014°22'0 0.0
2016-Aug-20 18:30N 67°17' E 014°22'0 0.0
2016-Aug-20 17:33N 67°17' E 014°22'0 0.0
2016-Aug-20 16:33N 67°17' E 014°22'1211.9
2016-Aug-20 15:33N 67°25' E 014°00'1111.5
2016-Aug-20 14:33N 67°17' E 014°22'1414.2
2016-Aug-20 13:33N 67°11' E 013°49'10 9.9
2016-Aug-20 12:34N 67°14' E 014°13'5 4.7
2016-Aug-20 11:34N 67°17' E 014°22'0 0.0
2016-Aug-20 10:33N 67°17' E 014°22'0 0.4
2016-Aug-20 09:33N 67°17' E 014°23'1313.0
2016-Aug-20 08:33N 67°24' E 013°54'1010.2
2016-Aug-20 07:34N 67°17' E 014°11'1010.0
2016-Aug-20 06:33N 67°08' E 013°58'1313.0
2016-Aug-20 05:33N 67°17' E 014°22'0 0.0
2016-Aug-20 04:32N 67°17' E 014°22'0 0.0
2016-Aug-20 03:32N 67°17' E 014°22'0 0.0
2016-Aug-20 02:32N 67°17' E 014°22'0 0.0
2016-Aug-20 01:32N 67°17' E 014°22'0 0.0
2016-Aug-20 00:31N 67°17' E 014°22'0 0.0
2016-Aug-19 23:31N 67°17' E 014°22'0 0.0
2016-Aug-19 22:31N 67°17' E 014°22'0 0.0
2016-Aug-19 21:31N 67°17' E 014°22'0 0.0
2016-Aug-19 20:31N 67°17' E 014°22'0 0.0
2016-Aug-19 19:31N 67°17' E 014°22'0 0.0
2016-Aug-19 18:33N 67°17' E 014°22'0 0.0
2016-Aug-19 17:33N 67°17' E 014°22'1 0.6
2016-Aug-19 16:33N 67°17' E 014°24'1615.6
2016-Aug-19 15:34N 67°18' E 013°43'1110.6
2016-Aug-19 14:33N 67°25' E 014°05'1010.2
2016-Aug-19 13:33N 67°17' E 014°22'4 3.5
2016-Aug-19 12:34N 67°20' E 014°18'6 6.1
2016-Aug-19 11:33N 67°25' E 014°07'10 9.6
2016-Aug-19 10:33N 67°17' E 014°22'0 0.0
2016-Aug-19 09:33N 67°17' E 014°22'0 0.0
2016-Aug-19 08:33N 67°17' E 014°22'0 0.0
2016-Aug-19 07:33N 67°17' E 014°22'0 0.0
2016-Aug-19 06:33N 67°17' E 014°22'0 0.0
2016-Aug-19 05:33N 67°17' E 014°22'1212.4
2016-Aug-19 04:33N 67°07' E 014°02'1212.4
2016-Aug-19 03:34N 67°17' E 014°22'0 0.0
2016-Aug-19 02:31N 67°17' E 014°22'0 0.0
2016-Aug-19 01:31N 67°17' E 014°22'0 0.0
2016-Aug-19 00:31N 67°17' E 014°22'0 0.0
2016-Aug-18 23:31N 67°17' E 014°22'0 0.0
2016-Aug-18 22:31N 67°17' E 014°22'0 0.0
2016-Aug-18 21:31N 67°17' E 014°22'0 0.0
2016-Aug-18 20:31N 67°17' E 014°22'1313.2
2016-Aug-18 19:34N 67°13' E 013°52'6 6.3
2016-Aug-18 18:33N 67°08' E 014°02'1212.1
2016-Aug-18 17:33N 67°17' E 014°22'1 0.6
2016-Aug-18 16:33N 67°17' E 014°24'1211.5
2016-Aug-18 15:33N 67°20' E 013°55'6 6.4
2016-Aug-18 14:34N 67°25' E 014°04'1110.6
2016-Aug-18 13:33N 67°17' E 014°22'9 8.8
2016-Aug-18 12:33N 67°24' E 014°10'2 1.8
2016-Aug-18 11:34N 67°24' E 014°14'7 7.3
2016-Aug-18 10:33N 67°17' E 014°24'1312.8
2016-Aug-18 09:33N 67°13' E 013°53'6 6.2
2016-Aug-18 08:33N 67°08' E 014°02'1211.8
2016-Aug-18 07:34N 67°17' E 014°22'0 0.0
2016-Aug-18 06:33N 67°17' E 014°22'0 0.0
2016-Aug-18 05:34N 67°17' E 014°22'1212.4
2016-Aug-18 04:33N 67°07' E 014°02'1212.4
2016-Aug-18 03:34N 67°17' E 014°22'0 0.0
2016-Aug-18 02:32N 67°17' E 014°22'0 0.0
2016-Aug-18 01:32N 67°17' E 014°22'0 0.0
2016-Aug-18 00:29N 67°17' E 014°22'0 0.0
2016-Aug-17 23:32N 67°17' E 014°22'0 0.0
2016-Aug-17 22:32N 67°17' E 014°22'0 0.0
2016-Aug-17 21:32N 67°17' E 014°22'0 0.0
2016-Aug-17 20:32N 67°17' E 014°22'8 8.1
2016-Aug-17 19:34N 67°13' E 014°05'6 5.7
2016-Aug-17 18:34N 67°07' E 014°03'1212.3
2016-Aug-17 17:33N 67°17' E 014°22'0 0.1
2016-Aug-17 16:33N 67°17' E 014°22'1615.5
2016-Aug-17 15:33N 67°10' E 013°46'7 6.8
2016-Aug-17 14:33N 67°07' E 014°02'1313.0
2016-Aug-17 13:34N 67°17' E 014°24'1 0.7
2016-Aug-17 12:33N 67°17' E 014°22'0 0.0
2016-Aug-17 11:33N 67°17' E 014°22'0 0.0
2016-Aug-17 10:34N 67°17' E 014°22'0 0.0
2016-Aug-17 09:33N 67°17' E 014°22'0 0.0
2016-Aug-17 08:33N 67°17' E 014°22'0 0.0
2016-Aug-17 07:33N 67°17' E 014°22'0 0.0
2016-Aug-17 06:34N 67°17' E 014°22'0 0.0
2016-Aug-17 05:34N 67°17' E 014°22'1212.3
2016-Aug-17 04:34N 67°07' E 014°03'1212.3
2016-Aug-17 03:33N 67°17' E 014°22'0 0.0
2016-Aug-17 02:32N 67°17' E 014°22'0 0.0
2016-Aug-17 01:32N 67°17' E 014°22'0 0.0
2016-Aug-17 00:32N 67°17' E 014°22'0 0.0
2016-Aug-16 23:29N 67°17' E 014°22'0 0.0
2016-Aug-16 22:29N 67°17' E 014°22'0 0.0
2016-Aug-16 21:32N 67°17' E 014°22'0 0.0
2016-Aug-16 20:32N 67°17' E 014°22'0 0.0
2016-Aug-16 19:32N 67°17' E 014°22'0 0.0
2016-Aug-16 18:32N 67°17' E 014°22'0 0.0
2016-Aug-16 17:32N 67°17' E 014°22'0 0.3
2016-Aug-16 16:34N 67°17' E 014°22'1413.9
2016-Aug-16 15:33N 67°19' E 013°46'1110.6
2016-Aug-16 14:34N 67°24' E 014°11'9 8.5
2016-Aug-16 13:33N 67°17' E 014°22'0 0.0
2016-Aug-16 12:33N 67°17' E 014°22'0 0.0
2016-Aug-16 11:33N 67°17' E 014°22'0 0.0
2016-Aug-16 10:33N 67°17' E 014°22'0 0.0
2016-Aug-16 09:33N 67°17' E 014°22'0 0.0
2016-Aug-16 08:33N 67°17' E 014°22'0 0.0
2016-Aug-16 07:33N 67°17' E 014°22'12 4.1
2016-Aug-16 04:33N 67°07' E 014°02'1212.3
2016-Aug-16 03:33N 67°17' E 014°22'0 0.0
2016-Aug-16 02:32N 67°17' E 014°22'0 0.0
2016-Aug-16 01:31N 67°17' E 014°22'0 0.0
2016-Aug-16 00:31N 67°17' E 014°22'0 0.0
2016-Aug-15 23:31N 67°17' E 014°22'0 0.0
2016-Aug-15 22:31N 67°17' E 014°22'0 0.0
2016-Aug-15 21:31N 67°17' E 014°22'0 0.0
2016-Aug-15 20:31N 67°17' E 014°22'0 0.0
2016-Aug-15 19:31N 67°17' E 014°22'0 0.0
2016-Aug-15 18:31N 67°17' E 014°22'0 0.0
2016-Aug-15 17:31N 67°17' E 014°22'0 0.3
2016-Aug-15 16:33N 67°17' E 014°23'1514.9
2016-Aug-15 15:34N 67°11' E 013°48'6 6.4
2016-Aug-15 14:34N 67°07' E 014°03'1212.3
2016-Aug-15 13:33N 67°17' E 014°22'0 0.0
2016-Aug-15 12:32N 67°17' E 014°22'0 0.0
2016-Aug-15 11:32N 67°17' E 014°22'0 0.0
2016-Aug-15 10:32N 67°17' E 014°22'1313.7
2016-Aug-15 09:34N 67°11' E 013°52'5 4.7
2016-Aug-15 08:34N 67°09' E 014°02'1211.5
2016-Aug-15 07:33N 67°17' E 014°22'0 0.0
2016-Aug-15 06:33N 67°17' E 014°22'12 6.2
2016-Aug-15 04:34N 67°07' E 014°02'1212.1
2016-Aug-15 03:33N 67°17' E 014°22'0 0.3
2016-Aug-15 02:32N 67°17' E 014°22'0 0.0
2016-Aug-15 01:32N 67°17' E 014°22'0 0.0
2016-Aug-15 00:32N 67°17' E 014°22'0 0.0
2016-Aug-14 23:32N 67°17' E 014°22'0 0.0
2016-Aug-14 22:32N 67°17' E 014°22'0 0.0
2016-Aug-14 21:31N 67°17' E 014°23'0 0.0
2016-Aug-14 20:31N 67°17' E 014°22'3 3.0
2016-Aug-14 19:34N 67°15' E 014°16'1313.0
2016-Aug-14 18:33N 67°10' E 013°46'1615.9
2016-Aug-14 17:33N 67°17' E 014°22'10 9.7
2016-Aug-14 16:33N 67°25' E 014°07'9 9.4
2016-Aug-14 15:33N 67°18' E 013°49'1312.9
2016-Aug-14 14:34N 67°17' E 014°22'0 0.0
2016-Aug-14 13:31N 67°17' E 014°22'0 0.0
2016-Aug-14 12:31N 67°17' E 014°22'  

Dump ship's entire track history